sensor_id;sensor_type;location;lat;lon;timestamp;P1;durP1;ratioP1;P2;durP2;ratioP2
3121;SDS011;1571;52.524;14.104;2023-01-23T00:01:34;34.27;;;17.87;;
3121;SDS011;1571;52.524;14.104;2023-01-23T00:04:03;37.17;;;20.83;;
3121;SDS011;1571;52.524;14.104;2023-01-23T00:06:31;37.37;;;20.83;;
3121;SDS011;1571;52.524;14.104;2023-01-23T00:09:00;34.60;;;20.07;;
3121;SDS011;1571;52.524;14.104;2023-01-23T00:11:29;34.60;;;18.87;;
3121;SDS011;1571;52.524;14.104;2023-01-23T00:13:58;37.63;;;20.67;;
3121;SDS011;1571;52.524;14.104;2023-01-23T00:16:28;41.07;;;21.57;;
3121;SDS011;1571;52.524;14.104;2023-01-23T00:18:58;42.77;;;22.07;;
3121;SDS011;1571;52.524;14.104;2023-01-23T00:21:27;41.20;;;20.33;;
3121;SDS011;1571;52.524;14.104;2023-01-23T00:23:57;39.30;;;20.60;;
3121;SDS011;1571;52.524;14.104;2023-01-23T00:26:28;41.20;;;20.90;;
3121;SDS011;1571;52.524;14.104;2023-01-23T00:29:00;38.80;;;21.50;;
3121;SDS011;1571;52.524;14.104;2023-01-23T00:31:29;37.10;;;20.30;;
3121;SDS011;1571;52.524;14.104;2023-01-23T00:34:00;42.73;;;21.10;;
3121;SDS011;1571;52.524;14.104;2023-01-23T00:36:31;36.87;;;20.67;;
3121;SDS011;1571;52.524;14.104;2023-01-23T00:39:00;44.93;;;22.60;;
3121;SDS011;1571;52.524;14.104;2023-01-23T00:41:33;40.97;;;19.03;;
3121;SDS011;1571;52.524;14.104;2023-01-23T00:44:03;38.57;;;20.90;;
3121;SDS011;1571;52.524;14.104;2023-01-23T00:46:31;36.00;;;18.47;;
3121;SDS011;1571;52.524;14.104;2023-01-23T00:49:00;41.07;;;22.93;;
3121;SDS011;1571;52.524;14.104;2023-01-23T00:51:29;40.40;;;22.83;;
3121;SDS011;1571;52.524;14.104;2023-01-23T00:53:57;43.30;;;20.47;;
3121;SDS011;1571;52.524;14.104;2023-01-23T00:56:26;42.27;;;22.30;;
3121;SDS011;1571;52.524;14.104;2023-01-23T00:58:55;43.73;;;22.40;;
3121;SDS011;1571;52.524;14.104;2023-01-23T01:01:24;38.90;;;19.23;;
3121;SDS011;1571;52.524;14.104;2023-01-23T01:03:53;46.47;;;22.73;;
3121;SDS011;1571;52.524;14.104;2023-01-23T01:06:21;38.47;;;21.47;;
3121;SDS011;1571;52.524;14.104;2023-01-23T01:08:50;41.23;;;23.07;;
3121;SDS011;1571;52.524;14.104;2023-01-23T01:11:18;45.60;;;24.00;;
3121;SDS011;1571;52.524;14.104;2023-01-23T01:13:46;38.50;;;20.80;;
3121;SDS011;1571;52.524;14.104;2023-01-23T01:16:16;42.60;;;22.73;;
3121;SDS011;1571;52.524;14.104;2023-01-23T01:18:44;39.40;;;23.50;;
3121;SDS011;1571;52.524;14.104;2023-01-23T01:21:14;39.53;;;21.73;;
3121;SDS011;1571;52.524;14.104;2023-01-23T01:23:42;41.30;;;21.07;;
3121;SDS011;1571;52.524;14.104;2023-01-23T01:26:11;39.70;;;21.60;;
3121;SDS011;1571;52.524;14.104;2023-01-23T01:28:39;43.30;;;22.03;;
3121;SDS011;1571;52.524;14.104;2023-01-23T01:31:09;41.97;;;22.20;;
3121;SDS011;1571;52.524;14.104;2023-01-23T01:33:40;36.60;;;21.20;;
3121;SDS011;1571;52.524;14.104;2023-01-23T01:36:10;43.57;;;21.70;;
3121;SDS011;1571;52.524;14.104;2023-01-23T01:38:40;44.33;;;25.10;;
3121;SDS011;1571;52.524;14.104;2023-01-23T01:41:09;42.27;;;21.73;;
3121;SDS011;1571;52.524;14.104;2023-01-23T01:43:38;41.07;;;20.73;;
3121;SDS011;1571;52.524;14.104;2023-01-23T01:46:16;47.97;;;24.13;;
3121;SDS011;1571;52.524;14.104;2023-01-23T01:48:58;37.93;;;21.20;;
3121;SDS011;1571;52.524;14.104;2023-01-23T01:51:32;40.63;;;20.80;;
3121;SDS011;1571;52.524;14.104;2023-01-23T01:54:07;44.63;;;21.10;;
3121;SDS011;1571;52.524;14.104;2023-01-23T01:56:46;37.27;;;18.93;;
3121;SDS011;1571;52.524;14.104;2023-01-23T01:59:20;31.43;;;19.23;;
3121;SDS011;1571;52.524;14.104;2023-01-23T02:01:51;46.53;;;22.83;;
3121;SDS011;1571;52.524;14.104;2023-01-23T02:04:25;37.70;;;20.77;;
3121;SDS011;1571;52.524;14.104;2023-01-23T02:06:53;38.97;;;19.93;;
3121;SDS011;1571;52.524;14.104;2023-01-23T02:09:24;32.07;;;20.37;;
3121;SDS011;1571;52.524;14.104;2023-01-23T02:11:53;42.73;;;21.10;;
3121;SDS011;1571;52.524;14.104;2023-01-23T02:14:21;36.67;;;20.07;;
3121;SDS011;1571;52.524;14.104;2023-01-23T02:16:51;36.73;;;20.37;;
3121;SDS011;1571;52.524;14.104;2023-01-23T02:19:33;32.77;;;20.80;;
3121;SDS011;1571;52.524;14.104;2023-01-23T02:22:10;33.83;;;18.97;;
3121;SDS011;1571;52.524;14.104;2023-01-23T02:24:48;38.50;;;19.23;;
3121;SDS011;1571;52.524;14.104;2023-01-23T02:27:25;31.57;;;19.50;;
3121;SDS011;1571;52.524;14.104;2023-01-23T02:29:54;33.40;;;20.20;;
3121;SDS011;1571;52.524;14.104;2023-01-23T02:32:25;31.90;;;18.50;;
3121;SDS011;1571;52.524;14.104;2023-01-23T02:34:54;33.70;;;18.70;;
3121;SDS011;1571;52.524;14.104;2023-01-23T02:37:25;32.23;;;18.33;;
3121;SDS011;1571;52.524;14.104;2023-01-23T02:40:00;33.03;;;18.80;;
3121;SDS011;1571;52.524;14.104;2023-01-23T02:42:33;32.20;;;20.10;;
3121;SDS011;1571;52.524;14.104;2023-01-23T02:45:05;36.87;;;19.77;;
3121;SDS011;1571;52.524;14.104;2023-01-23T02:47:34;31.07;;;18.20;;
3121;SDS011;1571;52.524;14.104;2023-01-23T02:50:02;30.93;;;20.60;;
3121;SDS011;1571;52.524;14.104;2023-01-23T02:52:31;34.50;;;19.17;;
3121;SDS011;1571;52.524;14.104;2023-01-23T02:55:00;30.50;;;18.20;;
3121;SDS011;1571;52.524;14.104;2023-01-23T02:57:28;31.07;;;16.30;;
3121;SDS011;1571;52.524;14.104;2023-01-23T02:59:58;32.03;;;18.60;;
3121;SDS011;1571;52.524;14.104;2023-01-23T03:02:43;35.30;;;19.40;;
3121;SDS011;1571;52.524;14.104;2023-01-23T03:05:12;33.30;;;19.20;;
3121;SDS011;1571;52.524;14.104;2023-01-23T03:07:41;29.93;;;18.30;;
3121;SDS011;1571;52.524;14.104;2023-01-23T03:10:11;35.67;;;19.67;;
3121;SDS011;1571;52.524;14.104;2023-01-23T03:12:43;36.73;;;20.73;;
3121;SDS011;1571;52.524;14.104;2023-01-23T03:15:14;32.07;;;18.23;;
3121;SDS011;1571;52.524;14.104;2023-01-23T03:17:43;33.57;;;21.73;;
3121;SDS011;1571;52.524;14.104;2023-01-23T03:20:12;33.73;;;18.70;;
3121;SDS011;1571;52.524;14.104;2023-01-23T03:22:41;31.90;;;18.47;;
3121;SDS011;1571;52.524;14.104;2023-01-23T03:25:09;32.40;;;20.70;;
3121;SDS011;1571;52.524;14.104;2023-01-23T03:27:37;29.10;;;17.43;;
3121;SDS011;1571;52.524;14.104;2023-01-23T03:30:06;30.50;;;17.40;;
3121;SDS011;1571;52.524;14.104;2023-01-23T03:32:43;32.67;;;20.70;;
3121;SDS011;1571;52.524;14.104;2023-01-23T03:35:14;34.23;;;18.87;;
3121;SDS011;1571;52.524;14.104;2023-01-23T03:37:43;35.43;;;20.30;;
3121;SDS011;1571;52.524;14.104;2023-01-23T03:40:14;35.20;;;19.73;;
3121;SDS011;1571;52.524;14.104;2023-01-23T03:43:03;35.70;;;20.17;;
3121;SDS011;1571;52.524;14.104;2023-01-23T03:45:33;36.17;;;20.13;;
3121;SDS011;1571;52.524;14.104;2023-01-23T03:48:03;29.63;;;18.30;;
3121;SDS011;1571;52.524;14.104;2023-01-23T03:50:35;30.63;;;17.97;;
3121;SDS011;1571;52.524;14.104;2023-01-23T03:53:03;34.47;;;19.03;;
3121;SDS011;1571;52.524;14.104;2023-01-23T03:55:31;28.47;;;18.37;;
3121;SDS011;1571;52.524;14.104;2023-01-23T03:57:59;31.53;;;18.50;;
3121;SDS011;1571;52.524;14.104;2023-01-23T04:00:30;34.17;;;20.50;;
3121;SDS011;1571;52.524;14.104;2023-01-23T04:03:04;32.67;;;19.40;;
3121;SDS011;1571;52.524;14.104;2023-01-23T04:05:32;30.23;;;18.40;;
3121;SDS011;1571;52.524;14.104;2023-01-23T04:08:01;30.23;;;18.03;;
3121;SDS011;1571;52.524;14.104;2023-01-23T04:10:30;29.37;;;18.20;;
3121;SDS011;1571;52.524;14.104;2023-01-23T04:13:03;33.63;;;18.70;;
3121;SDS011;1571;52.524;14.104;2023-01-23T04:15:31;30.93;;;18.30;;
3121;SDS011;1571;52.524;14.104;2023-01-23T04:18:04;30.00;;;17.63;;
3121;SDS011;1571;52.524;14.104;2023-01-23T04:20:33;30.83;;;17.63;;
3121;SDS011;1571;52.524;14.104;2023-01-23T04:23:01;27.40;;;17.27;;
3121;SDS011;1571;52.524;14.104;2023-01-23T04:25:29;26.93;;;17.90;;
3121;SDS011;1571;52.524;14.104;2023-01-23T04:27:58;32.23;;;18.43;;
3121;SDS011;1571;52.524;14.104;2023-01-23T04:30:26;25.40;;;17.27;;
3121;SDS011;1571;52.524;14.104;2023-01-23T04:32:58;31.50;;;18.30;;
3121;SDS011;1571;52.524;14.104;2023-01-23T04:35:29;25.50;;;17.20;;
3121;SDS011;1571;52.524;14.104;2023-01-23T04:37:57;29.37;;;17.33;;
3121;SDS011;1571;52.524;14.104;2023-01-23T04:40:26;30.27;;;18.43;;
3121;SDS011;1571;52.524;14.104;2023-01-23T04:42:58;36.80;;;19.30;;
3121;SDS011;1571;52.524;14.104;2023-01-23T04:45:42;30.20;;;17.60;;
3121;SDS011;1571;52.524;14.104;2023-01-23T04:48:29;33.43;;;17.90;;
3121;SDS011;1571;52.524;14.104;2023-01-23T04:50:58;26.53;;;17.60;;
3121;SDS011;1571;52.524;14.104;2023-01-23T04:53:27;28.63;;;18.83;;
3121;SDS011;1571;52.524;14.104;2023-01-23T04:55:59;32.30;;;19.00;;
3121;SDS011;1571;52.524;14.104;2023-01-23T04:58:27;30.70;;;17.10;;
3121;SDS011;1571;52.524;14.104;2023-01-23T05:01:02;30.87;;;18.80;;
3121;SDS011;1571;52.524;14.104;2023-01-23T05:03:34;29.33;;;18.30;;
3121;SDS011;1571;52.524;14.104;2023-01-23T05:06:04;30.63;;;18.70;;
3121;SDS011;1571;52.524;14.104;2023-01-23T05:08:34;32.80;;;16.77;;
3121;SDS011;1571;52.524;14.104;2023-01-23T05:11:12;32.00;;;18.30;;
3121;SDS011;1571;52.524;14.104;2023-01-23T05:13:41;28.87;;;18.00;;
3121;SDS011;1571;52.524;14.104;2023-01-23T05:16:10;30.67;;;17.17;;
3121;SDS011;1571;52.524;14.104;2023-01-23T05:19:11;32.97;;;18.53;;
3121;SDS011;1571;52.524;14.104;2023-01-23T05:21:40;29.57;;;17.20;;
3121;SDS011;1571;52.524;14.104;2023-01-23T05:24:14;34.30;;;19.77;;
3121;SDS011;1571;52.524;14.104;2023-01-23T05:26:43;31.30;;;18.30;;
3121;SDS011;1571;52.524;14.104;2023-01-23T05:29:12;32.07;;;18.73;;
3121;SDS011;1571;52.524;14.104;2023-01-23T05:31:50;35.57;;;20.07;;
3121;SDS011;1571;52.524;14.104;2023-01-23T05:34:36;31.43;;;19.90;;
3121;SDS011;1571;52.524;14.104;2023-01-23T05:37:35;33.30;;;18.00;;
3121;SDS011;1571;52.524;14.104;2023-01-23T05:40:04;33.50;;;19.57;;
3121;SDS011;1571;52.524;14.104;2023-01-23T05:42:54;35.23;;;20.50;;
3121;SDS011;1571;52.524;14.104;2023-01-23T05:45:51;37.57;;;23.27;;
3121;SDS011;1571;52.524;14.104;2023-01-23T05:48:27;34.80;;;19.40;;
3121;SDS011;1571;52.524;14.104;2023-01-23T05:50:55;39.97;;;19.93;;
3121;SDS011;1571;52.524;14.104;2023-01-23T05:53:26;34.80;;;19.53;;
3121;SDS011;1571;52.524;14.104;2023-01-23T05:55:54;39.27;;;23.03;;
3121;SDS011;1571;52.524;14.104;2023-01-23T05:58:23;37.23;;;19.53;;
3121;SDS011;1571;52.524;14.104;2023-01-23T06:01:13;32.90;;;19.13;;
3121;SDS011;1571;52.524;14.104;2023-01-23T06:04:10;37.90;;;20.80;;
3121;SDS011;1571;52.524;14.104;2023-01-23T06:06:58;32.37;;;18.07;;
3121;SDS011;1571;52.524;14.104;2023-01-23T06:09:28;41.30;;;19.93;;
3121;SDS011;1571;52.524;14.104;2023-01-23T06:11:57;39.57;;;21.93;;
3121;SDS011;1571;52.524;14.104;2023-01-23T06:14:25;29.37;;;18.27;;
3121;SDS011;1571;52.524;14.104;2023-01-23T06:16:53;36.60;;;21.37;;
3121;SDS011;1571;52.524;14.104;2023-01-23T06:19:22;36.10;;;20.50;;
3121;SDS011;1571;52.524;14.104;2023-01-23T06:21:50;37.83;;;20.10;;
3121;SDS011;1571;52.524;14.104;2023-01-23T06:24:18;33.00;;;19.33;;
3121;SDS011;1571;52.524;14.104;2023-01-23T06:26:49;35.03;;;20.63;;
3121;SDS011;1571;52.524;14.104;2023-01-23T06:29:17;33.70;;;19.70;;
3121;SDS011;1571;52.524;14.104;2023-01-23T06:31:45;36.57;;;19.67;;
3121;SDS011;1571;52.524;14.104;2023-01-23T06:34:14;34.77;;;20.37;;
3121;SDS011;1571;52.524;14.104;2023-01-23T06:36:54;30.67;;;19.30;;
3121;SDS011;1571;52.524;14.104;2023-01-23T06:39:22;44.43;;;22.07;;
3121;SDS011;1571;52.524;14.104;2023-01-23T06:41:53;35.90;;;18.60;;
3121;SDS011;1571;52.524;14.104;2023-01-23T06:44:21;35.90;;;20.80;;
3121;SDS011;1571;52.524;14.104;2023-01-23T06:46:51;36.53;;;21.37;;
3121;SDS011;1571;52.524;14.104;2023-01-23T06:49:22;32.37;;;19.20;;
3121;SDS011;1571;52.524;14.104;2023-01-23T06:51:51;39.13;;;21.03;;
3121;SDS011;1571;52.524;14.104;2023-01-23T06:54:20;38.20;;;19.50;;
3121;SDS011;1571;52.524;14.104;2023-01-23T06:56:52;34.07;;;19.27;;
3121;SDS011;1571;52.524;14.104;2023-01-23T06:59:22;34.53;;;20.17;;
3121;SDS011;1571;52.524;14.104;2023-01-23T07:01:50;37.20;;;20.97;;
3121;SDS011;1571;52.524;14.104;2023-01-23T07:04:23;35.50;;;19.07;;
3121;SDS011;1571;52.524;14.104;2023-01-23T07:06:51;34.70;;;20.40;;
3121;SDS011;1571;52.524;14.104;2023-01-23T07:09:20;31.20;;;17.43;;
3121;SDS011;1571;52.524;14.104;2023-01-23T07:11:58;34.43;;;20.20;;
3121;SDS011;1571;52.524;14.104;2023-01-23T07:14:28;35.43;;;19.67;;
3121;SDS011;1571;52.524;14.104;2023-01-23T07:16:57;34.77;;;21.10;;
3121;SDS011;1571;52.524;14.104;2023-01-23T07:19:25;30.90;;;19.10;;
3121;SDS011;1571;52.524;14.104;2023-01-23T07:21:57;33.27;;;19.33;;
3121;SDS011;1571;52.524;14.104;2023-01-23T07:24:26;32.13;;;20.87;;
3121;SDS011;1571;52.524;14.104;2023-01-23T07:26:58;29.30;;;18.00;;
3121;SDS011;1571;52.524;14.104;2023-01-23T07:29:26;32.33;;;19.60;;
3121;SDS011;1571;52.524;14.104;2023-01-23T07:31:56;35.53;;;19.90;;
3121;SDS011;1571;52.524;14.104;2023-01-23T07:34:26;38.83;;;21.63;;
3121;SDS011;1571;52.524;14.104;2023-01-23T07:36:54;33.57;;;18.53;;
3121;SDS011;1571;52.524;14.104;2023-01-23T07:39:23;35.93;;;21.80;;
3121;SDS011;1571;52.524;14.104;2023-01-23T07:41:51;33.10;;;19.97;;
3121;SDS011;1571;52.524;14.104;2023-01-23T07:44:21;32.70;;;19.27;;
3121;SDS011;1571;52.524;14.104;2023-01-23T07:46:49;31.07;;;20.40;;
3121;SDS011;1571;52.524;14.104;2023-01-23T07:49:18;38.67;;;18.80;;
3121;SDS011;1571;52.524;14.104;2023-01-23T07:51:46;42.00;;;20.13;;
3121;SDS011;1571;52.524;14.104;2023-01-23T07:54:14;36.07;;;18.10;;
3121;SDS011;1571;52.524;14.104;2023-01-23T07:56:42;35.33;;;20.17;;
3121;SDS011;1571;52.524;14.104;2023-01-23T07:59:11;34.07;;;19.20;;
3121;SDS011;1571;52.524;14.104;2023-01-23T08:01:40;35.50;;;18.10;;
3121;SDS011;1571;52.524;14.104;2023-01-23T08:04:09;32.67;;;17.93;;
3121;SDS011;1571;52.524;14.104;2023-01-23T08:06:37;30.87;;;18.77;;
3121;SDS011;1571;52.524;14.104;2023-01-23T08:09:06;32.23;;;19.13;;
3121;SDS011;1571;52.524;14.104;2023-01-23T08:11:34;29.67;;;18.67;;
3121;SDS011;1571;52.524;14.104;2023-01-23T08:14:02;28.67;;;17.97;;
3121;SDS011;1571;52.524;14.104;2023-01-23T08:16:30;28.00;;;16.93;;
3121;SDS011;1571;52.524;14.104;2023-01-23T08:19:00;26.80;;;17.17;;
3121;SDS011;1571;52.524;14.104;2023-01-23T08:21:28;24.67;;;15.97;;
3121;SDS011;1571;52.524;14.104;2023-01-23T08:23:56;31.53;;;17.10;;
3121;SDS011;1571;52.524;14.104;2023-01-23T08:26:25;25.50;;;16.67;;
3121;SDS011;1571;52.524;14.104;2023-01-23T08:28:53;29.47;;;19.10;;
3121;SDS011;1571;52.524;14.104;2023-01-23T08:31:21;27.23;;;16.90;;
3121;SDS011;1571;52.524;14.104;2023-01-23T08:33:49;30.03;;;17.60;;
3121;SDS011;1571;52.524;14.104;2023-01-23T08:36:19;33.80;;;20.07;;
3121;SDS011;1571;52.524;14.104;2023-01-23T08:38:47;27.00;;;17.40;;
3121;SDS011;1571;52.524;14.104;2023-01-23T08:41:16;27.43;;;15.20;;
3121;SDS011;1571;52.524;14.104;2023-01-23T08:43:44;28.20;;;17.60;;
3121;SDS011;1571;52.524;14.104;2023-01-23T08:46:12;29.00;;;17.70;;
3121;SDS011;1571;52.524;14.104;2023-01-23T08:48:41;29.77;;;17.17;;
3121;SDS011;1571;52.524;14.104;2023-01-23T08:51:10;27.00;;;16.60;;
3121;SDS011;1571;52.524;14.104;2023-01-23T08:53:41;26.07;;;16.87;;
3121;SDS011;1571;52.524;14.104;2023-01-23T08:56:10;25.93;;;15.77;;
3121;SDS011;1571;52.524;14.104;2023-01-23T08:58:42;29.13;;;18.10;;
3121;SDS011;1571;52.524;14.104;2023-01-23T09:01:11;26.93;;;17.67;;
3121;SDS011;1571;52.524;14.104;2023-01-23T09:03:40;25.83;;;15.70;;
3121;SDS011;1571;52.524;14.104;2023-01-23T09:06:09;26.43;;;15.60;;
3121;SDS011;1571;52.524;14.104;2023-01-23T09:08:38;27.30;;;17.27;;
3121;SDS011;1571;52.524;14.104;2023-01-23T09:11:08;27.00;;;17.87;;
3121;SDS011;1571;52.524;14.104;2023-01-23T09:13:38;28.23;;;16.73;;
3121;SDS011;1571;52.524;14.104;2023-01-23T09:16:07;29.70;;;19.40;;
3121;SDS011;1571;52.524;14.104;2023-01-23T09:18:36;25.93;;;16.20;;
3121;SDS011;1571;52.524;14.104;2023-01-23T09:21:05;24.83;;;15.57;;
3121;SDS011;1571;52.524;14.104;2023-01-23T09:23:34;31.03;;;17.43;;
3121;SDS011;1571;52.524;14.104;2023-01-23T09:26:03;24.50;;;15.97;;
3121;SDS011;1571;52.524;14.104;2023-01-23T09:28:33;24.90;;;16.03;;
3121;SDS011;1571;52.524;14.104;2023-01-23T09:31:02;25.47;;;16.33;;
3121;SDS011;1571;52.524;14.104;2023-01-23T09:33:33;28.80;;;16.83;;
3121;SDS011;1571;52.524;14.104;2023-01-23T09:36:01;31.63;;;20.27;;
3121;SDS011;1571;52.524;14.104;2023-01-23T09:38:30;32.90;;;18.93;;
3121;SDS011;1571;52.524;14.104;2023-01-23T09:41:06;26.03;;;16.77;;
3121;SDS011;1571;52.524;14.104;2023-01-23T09:43:38;26.87;;;17.73;;
3121;SDS011;1571;52.524;14.104;2023-01-23T09:46:12;28.90;;;17.07;;
3121;SDS011;1571;52.524;14.104;2023-01-23T09:48:46;24.93;;;17.17;;
3121;SDS011;1571;52.524;14.104;2023-01-23T09:51:19;27.00;;;17.77;;
3121;SDS011;1571;52.524;14.104;2023-01-23T09:53:53;26.27;;;15.20;;
3121;SDS011;1571;52.524;14.104;2023-01-23T09:56:27;26.30;;;15.53;;
3121;SDS011;1571;52.524;14.104;2023-01-23T09:58:59;25.90;;;17.97;;
3121;SDS011;1571;52.524;14.104;2023-01-23T10:01:33;30.17;;;18.70;;
3121;SDS011;1571;52.524;14.104;2023-01-23T10:04:01;24.20;;;17.00;;
3121;SDS011;1571;52.524;14.104;2023-01-23T10:06:31;24.37;;;16.30;;
3121;SDS011;1571;52.524;14.104;2023-01-23T10:09:14;23.67;;;16.00;;
3121;SDS011;1571;52.524;14.104;2023-01-23T10:11:56;24.90;;;15.80;;
3121;SDS011;1571;52.524;14.104;2023-01-23T10:17:26;28.30;;;16.40;;
3121;SDS011;1571;52.524;14.104;2023-01-23T10:20:13;25.27;;;17.93;;
3121;SDS011;1571;52.524;14.104;2023-01-23T10:22:53;25.73;;;16.70;;
3121;SDS011;1571;52.524;14.104;2023-01-23T10:25:34;25.70;;;16.47;;
3121;SDS011;1571;52.524;14.104;2023-01-23T10:28:17;26.90;;;15.20;;
3121;SDS011;1571;52.524;14.104;2023-01-23T10:30:58;25.13;;;15.77;;
3121;SDS011;1571;52.524;14.104;2023-01-23T10:33:32;20.70;;;13.67;;
3121;SDS011;1571;52.524;14.104;2023-01-23T10:36:05;28.20;;;15.37;;
3121;SDS011;1571;52.524;14.104;2023-01-23T10:38:53;24.00;;;17.33;;
3121;SDS011;1571;52.524;14.104;2023-01-23T10:41:26;27.57;;;17.07;;
3121;SDS011;1571;52.524;14.104;2023-01-23T10:43:55;24.60;;;16.67;;
3121;SDS011;1571;52.524;14.104;2023-01-23T10:46:28;25.13;;;16.60;;
3121;SDS011;1571;52.524;14.104;2023-01-23T10:49:01;29.70;;;17.13;;
3121;SDS011;1571;52.524;14.104;2023-01-23T10:51:34;21.73;;;15.33;;
3121;SDS011;1571;52.524;14.104;2023-01-23T10:54:14;23.57;;;16.20;;
3121;SDS011;1571;52.524;14.104;2023-01-23T10:56:59;24.87;;;15.97;;
3121;SDS011;1571;52.524;14.104;2023-01-23T10:59:30;25.73;;;14.33;;
3121;SDS011;1571;52.524;14.104;2023-01-23T11:02:17;22.47;;;16.90;;
3121;SDS011;1571;52.524;14.104;2023-01-23T11:04:47;25.93;;;17.40;;
3121;SDS011;1571;52.524;14.104;2023-01-23T11:07:19;22.73;;;15.20;;
3121;SDS011;1571;52.524;14.104;2023-01-23T11:09:51;21.57;;;14.60;;
3121;SDS011;1571;52.524;14.104;2023-01-23T11:12:21;24.80;;;15.90;;
3121;SDS011;1571;52.524;14.104;2023-01-23T11:14:51;22.53;;;15.43;;
3121;SDS011;1571;52.524;14.104;2023-01-23T11:17:49;25.67;;;15.60;;
3121;SDS011;1571;52.524;14.104;2023-01-23T11:20:21;22.27;;;15.30;;
3121;SDS011;1571;52.524;14.104;2023-01-23T11:23:02;27.73;;;15.60;;
3121;SDS011;1571;52.524;14.104;2023-01-23T11:25:32;24.47;;;15.57;;
3121;SDS011;1571;52.524;14.104;2023-01-23T11:28:16;22.87;;;15.40;;
3121;SDS011;1571;52.524;14.104;2023-01-23T11:30:46;23.23;;;15.23;;
3121;SDS011;1571;52.524;14.104;2023-01-23T11:33:38;21.50;;;14.60;;
3121;SDS011;1571;52.524;14.104;2023-01-23T11:36:16;26.70;;;15.93;;
3121;SDS011;1571;52.524;14.104;2023-01-23T11:38:56;22.07;;;14.50;;
3121;SDS011;1571;52.524;14.104;2023-01-23T11:41:31;20.83;;;15.30;;
3121;SDS011;1571;52.524;14.104;2023-01-23T11:44:07;24.13;;;14.50;;
3121;SDS011;1571;52.524;14.104;2023-01-23T11:46:48;24.87;;;15.57;;
3121;SDS011;1571;52.524;14.104;2023-01-23T11:49:47;26.20;;;16.57;;
3121;SDS011;1571;52.524;14.104;2023-01-23T11:52:29;23.17;;;14.50;;
3121;SDS011;1571;52.524;14.104;2023-01-23T11:55:12;22.37;;;14.23;;
3121;SDS011;1571;52.524;14.104;2023-01-23T11:57:55;23.33;;;15.73;;
3121;SDS011;1571;52.524;14.104;2023-01-23T12:00:32;20.83;;;15.93;;
3121;SDS011;1571;52.524;14.104;2023-01-23T12:06:20;22.53;;;14.10;;
3121;SDS011;1571;52.524;14.104;2023-01-23T12:09:01;22.13;;;14.10;;
3121;SDS011;1571;52.524;14.104;2023-01-23T12:11:39;22.20;;;13.63;;
3121;SDS011;1571;52.524;14.104;2023-01-23T12:14:23;18.50;;;13.47;;
3121;SDS011;1571;52.524;14.104;2023-01-23T12:16:58;21.47;;;13.43;;
3121;SDS011;1571;52.524;14.104;2023-01-23T12:19:48;18.40;;;12.73;;
3121;SDS011;1571;52.524;14.104;2023-01-23T12:22:32;22.30;;;13.13;;
3121;SDS011;1571;52.524;14.104;2023-01-23T12:25:15;23.23;;;13.10;;
3121;SDS011;1571;52.524;14.104;2023-01-23T12:27:52;21.93;;;14.70;;
3121;SDS011;1571;52.524;14.104;2023-01-23T12:33:18;15.27;;;10.73;;
3121;SDS011;1571;52.524;14.104;2023-01-23T12:35:58;19.30;;;12.07;;
3121;SDS011;1571;52.524;14.104;2023-01-23T12:38:39;17.33;;;12.30;;
3121;SDS011;1571;52.524;14.104;2023-01-23T12:41:19;17.00;;;12.10;;
3121;SDS011;1571;52.524;14.104;2023-01-23T12:43:59;19.03;;;12.90;;
3121;SDS011;1571;52.524;14.104;2023-01-23T12:46:32;16.90;;;12.87;;
3121;SDS011;1571;52.524;14.104;2023-01-23T12:49:08;19.07;;;12.57;;
3121;SDS011;1571;52.524;14.104;2023-01-23T12:51:48;18.77;;;12.40;;
3121;SDS011;1571;52.524;14.104;2023-01-23T12:54:23;17.00;;;11.40;;
3121;SDS011;1571;52.524;14.104;2023-01-23T12:56:59;21.20;;;12.70;;
3121;SDS011;1571;52.524;14.104;2023-01-23T12:59:34;19.17;;;12.70;;
3121;SDS011;1571;52.524;14.104;2023-01-23T13:02:18;14.90;;;10.20;;
3121;SDS011;1571;52.524;14.104;2023-01-23T13:04:59;19.37;;;11.40;;
3121;SDS011;1571;52.524;14.104;2023-01-23T13:07:41;13.90;;;10.17;;
3121;SDS011;1571;52.524;14.104;2023-01-23T13:10:19;16.67;;;11.73;;
3121;SDS011;1571;52.524;14.104;2023-01-23T13:13:14;15.93;;;11.03;;
3121;SDS011;1571;52.524;14.104;2023-01-23T13:15:48;16.17;;;10.97;;
3121;SDS011;1571;52.524;14.104;2023-01-23T13:18:29;15.10;;;11.13;;
3121;SDS011;1571;52.524;14.104;2023-01-23T13:21:19;46.57;;;26.23;;
3121;SDS011;1571;52.524;14.104;2023-01-23T13:24:21;16.07;;;10.30;;
3121;SDS011;1571;52.524;14.104;2023-01-23T13:36:25;17.50;;;11.50;;
3121;SDS011;1571;52.524;14.104;2023-01-23T13:51:48;14.37;;;10.30;;
3121;SDS011;1571;52.524;14.104;2023-01-23T13:54:31;17.40;;;11.47;;
3121;SDS011;1571;52.524;14.104;2023-01-23T13:57:30;18.77;;;12.43;;
3121;SDS011;1571;52.524;14.104;2023-01-23T14:00:14;15.90;;;10.70;;
3121;SDS011;1571;52.524;14.104;2023-01-23T14:03:00;15.00;;;11.10;;
3121;SDS011;1571;52.524;14.104;2023-01-23T14:06:13;14.67;;;11.43;;
3121;SDS011;1571;52.524;14.104;2023-01-23T14:08:55;15.30;;;10.87;;
3121;SDS011;1571;52.524;14.104;2023-01-23T14:11:55;14.80;;;9.87;;
3121;SDS011;1571;52.524;14.104;2023-01-23T14:14:52;12.67;;;9.77;;
3121;SDS011;1571;52.524;14.104;2023-01-23T14:17:52;14.60;;;9.50;;
3121;SDS011;1571;52.524;14.104;2023-01-23T14:20:37;14.70;;;10.03;;
3121;SDS011;1571;52.524;14.104;2023-01-23T14:23:24;15.80;;;11.00;;
3121;SDS011;1571;52.524;14.104;2023-01-23T14:25:56;14.97;;;11.27;;
3121;SDS011;1571;52.524;14.104;2023-01-23T14:28:24;14.50;;;10.30;;
3121;SDS011;1571;52.524;14.104;2023-01-23T14:30:53;13.50;;;9.10;;
3121;SDS011;1571;52.524;14.104;2023-01-23T14:33:24;12.80;;;8.80;;
3121;SDS011;1571;52.524;14.104;2023-01-23T14:35:54;14.63;;;10.63;;
3121;SDS011;1571;52.524;14.104;2023-01-23T14:38:26;13.27;;;10.27;;
3121;SDS011;1571;52.524;14.104;2023-01-23T14:41:01;14.37;;;9.63;;
3121;SDS011;1571;52.524;14.104;2023-01-23T14:43:31;14.13;;;9.97;;
3121;SDS011;1571;52.524;14.104;2023-01-23T14:46:03;16.50;;;10.83;;
3121;SDS011;1571;52.524;14.104;2023-01-23T14:48:34;16.63;;;10.30;;
3121;SDS011;1571;52.524;14.104;2023-01-23T14:51:13;12.03;;;8.50;;
3121;SDS011;1571;52.524;14.104;2023-01-23T14:53:49;12.93;;;9.60;;
3121;SDS011;1571;52.524;14.104;2023-01-23T14:56:21;13.40;;;10.77;;
3121;SDS011;1571;52.524;14.104;2023-01-23T14:58:55;14.47;;;9.67;;
3121;SDS011;1571;52.524;14.104;2023-01-23T15:01:25;13.40;;;10.27;;
3121;SDS011;1571;52.524;14.104;2023-01-23T15:03:55;14.50;;;10.63;;
3121;SDS011;1571;52.524;14.104;2023-01-23T15:06:27;10.13;;;9.07;;
3121;SDS011;1571;52.524;14.104;2023-01-23T15:09:05;15.33;;;10.43;;
3121;SDS011;1571;52.524;14.104;2023-01-23T15:11:35;13.80;;;9.83;;
3121;SDS011;1571;52.524;14.104;2023-01-23T15:14:04;14.03;;;9.17;;
3121;SDS011;1571;52.524;14.104;2023-01-23T15:16:34;15.43;;;10.80;;
3121;SDS011;1571;52.524;14.104;2023-01-23T15:19:05;15.63;;;11.50;;
3121;SDS011;1571;52.524;14.104;2023-01-23T15:21:37;14.23;;;8.77;;
3121;SDS011;1571;52.524;14.104;2023-01-23T15:26:55;12.10;;;9.03;;
3121;SDS011;1571;52.524;14.104;2023-01-23T15:29:25;13.67;;;10.17;;
3121;SDS011;1571;52.524;14.104;2023-01-23T15:31:53;12.77;;;9.80;;
3121;SDS011;1571;52.524;14.104;2023-01-23T15:34:24;11.63;;;8.70;;
3121;SDS011;1571;52.524;14.104;2023-01-23T15:36:56;17.67;;;10.10;;
3121;SDS011;1571;52.524;14.104;2023-01-23T15:39:28;14.93;;;9.00;;
3121;SDS011;1571;52.524;14.104;2023-01-23T15:41:58;16.10;;;9.57;;
3121;SDS011;1571;52.524;14.104;2023-01-23T15:44:28;16.17;;;11.20;;
3121;SDS011;1571;52.524;14.104;2023-01-23T15:46:57;14.83;;;10.33;;